sensor_id;sensor_type;location;lat;lon;timestamp;P1;durP1;ratioP1;P2;durP2;ratioP2
30247;SDS011;17063;50.892;4.702;2023-09-30T00:01:47;4.13;;;3.30;;
30247;SDS011;17063;50.892;4.702;2023-09-30T00:04:14;3.60;;;2.60;;
30247;SDS011;17063;50.892;4.702;2023-09-30T00:06:41;3.20;;;2.90;;
30247;SDS011;17063;50.892;4.702;2023-09-30T00:09:09;3.20;;;2.53;;
30247;SDS011;17063;50.892;4.702;2023-09-30T00:11:35;4.07;;;2.67;;
30247;SDS011;17063;50.892;4.702;2023-09-30T00:14:02;7.33;;;2.80;;
30247;SDS011;17063;50.892;4.702;2023-09-30T00:16:30;4.90;;;2.47;;
30247;SDS011;17063;50.892;4.702;2023-09-30T00:18:57;3.03;;;2.53;;
30247;SDS011;17063;50.892;4.702;2023-09-30T00:21:25;6.53;;;2.63;;
30247;SDS011;17063;50.892;4.702;2023-09-30T00:23:52;2.60;;;2.40;;
30247;SDS011;17063;50.892;4.702;2023-09-30T00:26:19;7.07;;;3.03;;
30247;SDS011;17063;50.892;4.702;2023-09-30T00:28:47;4.50;;;2.57;;
30247;SDS011;17063;50.892;4.702;2023-09-30T00:31:14;2.90;;;2.40;;
30247;SDS011;17063;50.892;4.702;2023-09-30T00:33:41;7.13;;;2.50;;
30247;SDS011;17063;50.892;4.702;2023-09-30T00:36:08;5.77;;;3.27;;
30247;SDS011;17063;50.892;4.702;2023-09-30T00:38:39;3.00;;;2.70;;
30247;SDS011;17063;50.892;4.702;2023-09-30T00:41:06;3.23;;;2.80;;
30247;SDS011;17063;50.892;4.702;2023-09-30T00:43:33;3.57;;;2.50;;
30247;SDS011;17063;50.892;4.702;2023-09-30T00:48:37;4.40;;;2.50;;
30247;SDS011;17063;50.892;4.702;2023-09-30T00:51:05;3.10;;;2.60;;
30247;SDS011;17063;50.892;4.702;2023-09-30T00:53:32;3.23;;;2.70;;
30247;SDS011;17063;50.892;4.702;2023-09-30T00:56:00;4.47;;;3.10;;
30247;SDS011;17063;50.892;4.702;2023-09-30T00:58:27;4.13;;;2.70;;
30247;SDS011;17063;50.892;4.702;2023-09-30T01:00:56;5.87;;;2.70;;
30247;SDS011;17063;50.892;4.702;2023-09-30T01:03:23;3.93;;;2.77;;
30247;SDS011;17063;50.892;4.702;2023-09-30T01:05:50;3.57;;;2.70;;
30247;SDS011;17063;50.892;4.702;2023-09-30T01:08:17;3.63;;;2.37;;
30247;SDS011;17063;50.892;4.702;2023-09-30T01:10:44;6.07;;;2.60;;
30247;SDS011;17063;50.892;4.702;2023-09-30T01:13:11;5.63;;;2.53;;
30247;SDS011;17063;50.892;4.702;2023-09-30T01:15:38;3.80;;;2.87;;
30247;SDS011;17063;50.892;4.702;2023-09-30T01:18:05;3.67;;;2.80;;
30247;SDS011;17063;50.892;4.702;2023-09-30T01:20:32;3.30;;;2.60;;
30247;SDS011;17063;50.892;4.702;2023-09-30T01:23:00;2.50;;;2.30;;
30247;SDS011;17063;50.892;4.702;2023-09-30T01:25:27;3.77;;;2.70;;
30247;SDS011;17063;50.892;4.702;2023-09-30T01:27:54;10.83;;;2.53;;
30247;SDS011;17063;50.892;4.702;2023-09-30T01:30:21;5.00;;;2.63;;
30247;SDS011;17063;50.892;4.702;2023-09-30T01:32:49;3.27;;;2.50;;
30247;SDS011;17063;50.892;4.702;2023-09-30T01:35:16;5.67;;;2.57;;
30247;SDS011;17063;50.892;4.702;2023-09-30T01:37:43;4.67;;;2.43;;
30247;SDS011;17063;50.892;4.702;2023-09-30T01:40:10;4.53;;;2.43;;
30247;SDS011;17063;50.892;4.702;2023-09-30T01:42:37;4.73;;;2.43;;
30247;SDS011;17063;50.892;4.702;2023-09-30T01:45:05;3.30;;;2.77;;
30247;SDS011;17063;50.892;4.702;2023-09-30T01:47:32;3.93;;;2.77;;
30247;SDS011;17063;50.892;4.702;2023-09-30T01:50:00;4.70;;;2.43;;
30247;SDS011;17063;50.892;4.702;2023-09-30T01:52:27;4.20;;;2.83;;
30247;SDS011;17063;50.892;4.702;2023-09-30T01:54:54;5.23;;;2.70;;
30247;SDS011;17063;50.892;4.702;2023-09-30T01:57:20;4.73;;;2.47;;
30247;SDS011;17063;50.892;4.702;2023-09-30T01:59:48;5.27;;;3.30;;
30247;SDS011;17063;50.892;4.702;2023-09-30T02:02:15;6.77;;;2.93;;
30247;SDS011;17063;50.892;4.702;2023-09-30T02:04:42;4.87;;;2.93;;
30247;SDS011;17063;50.892;4.702;2023-09-30T02:07:10;6.30;;;3.10;;
30247;SDS011;17063;50.892;4.702;2023-09-30T02:09:37;5.43;;;2.73;;
30247;SDS011;17063;50.892;4.702;2023-09-30T02:12:04;3.77;;;2.70;;
30247;SDS011;17063;50.892;4.702;2023-09-30T02:14:31;6.33;;;3.27;;
30247;SDS011;17063;50.892;4.702;2023-09-30T02:16:58;9.13;;;3.60;;
30247;SDS011;17063;50.892;4.702;2023-09-30T02:19:25;6.33;;;3.07;;
30247;SDS011;17063;50.892;4.702;2023-09-30T02:21:56;6.13;;;3.53;;
30247;SDS011;17063;50.892;4.702;2023-09-30T02:24:23;9.67;;;3.60;;
30247;SDS011;17063;50.892;4.702;2023-09-30T02:26:52;5.13;;;3.43;;
30247;SDS011;17063;50.892;4.702;2023-09-30T02:29:19;4.97;;;3.37;;
30247;SDS011;17063;50.892;4.702;2023-09-30T02:31:47;5.77;;;3.20;;
30247;SDS011;17063;50.892;4.702;2023-09-30T02:34:14;8.67;;;3.80;;
30247;SDS011;17063;50.892;4.702;2023-09-30T02:36:41;7.53;;;3.30;;
30247;SDS011;17063;50.892;4.702;2023-09-30T02:39:08;6.77;;;3.83;;
30247;SDS011;17063;50.892;4.702;2023-09-30T02:41:36;9.67;;;4.30;;
30247;SDS011;17063;50.892;4.702;2023-09-30T02:44:04;8.17;;;3.90;;
30247;SDS011;17063;50.892;4.702;2023-09-30T02:46:31;5.90;;;3.27;;
30247;SDS011;17063;50.892;4.702;2023-09-30T02:48:58;9.50;;;3.90;;
30247;SDS011;17063;50.892;4.702;2023-09-30T02:51:24;9.90;;;3.70;;
30247;SDS011;17063;50.892;4.702;2023-09-30T02:53:55;5.57;;;4.20;;
30247;SDS011;17063;50.892;4.702;2023-09-30T02:56:22;8.47;;;4.10;;
30247;SDS011;17063;50.892;4.702;2023-09-30T02:58:50;6.03;;;3.90;;
30247;SDS011;17063;50.892;4.702;2023-09-30T03:01:20;8.80;;;4.53;;
30247;SDS011;17063;50.892;4.702;2023-09-30T03:03:47;8.27;;;4.07;;
30247;SDS011;17063;50.892;4.702;2023-09-30T03:06:14;6.00;;;4.03;;
30247;SDS011;17063;50.892;4.702;2023-09-30T03:08:41;7.30;;;4.33;;
30247;SDS011;17063;50.892;4.702;2023-09-30T03:11:08;7.67;;;4.10;;
30247;SDS011;17063;50.892;4.702;2023-09-30T03:13:35;6.90;;;3.83;;
30247;SDS011;17063;50.892;4.702;2023-09-30T03:16:02;7.33;;;4.13;;
30247;SDS011;17063;50.892;4.702;2023-09-30T03:18:30;6.80;;;4.50;;
30247;SDS011;17063;50.892;4.702;2023-09-30T03:21:00;5.67;;;4.13;;
30247;SDS011;17063;50.892;4.702;2023-09-30T03:23:28;6.57;;;3.87;;
30247;SDS011;17063;50.892;4.702;2023-09-30T03:25:57;6.90;;;3.93;;
30247;SDS011;17063;50.892;4.702;2023-09-30T03:28:24;6.43;;;3.90;;
30247;SDS011;17063;50.892;4.702;2023-09-30T03:30:52;11.47;;;4.60;;
30247;SDS011;17063;50.892;4.702;2023-09-30T03:33:19;7.43;;;4.17;;
30247;SDS011;17063;50.892;4.702;2023-09-30T03:35:46;12.53;;;4.50;;
30247;SDS011;17063;50.892;4.702;2023-09-30T03:38:13;7.17;;;3.87;;
30247;SDS011;17063;50.892;4.702;2023-09-30T03:40:40;8.13;;;4.23;;
30247;SDS011;17063;50.892;4.702;2023-09-30T03:43:16;7.50;;;4.53;;
30247;SDS011;17063;50.892;4.702;2023-09-30T03:45:43;7.13;;;4.60;;
30247;SDS011;17063;50.892;4.702;2023-09-30T03:48:09;8.93;;;4.67;;
30247;SDS011;17063;50.892;4.702;2023-09-30T03:50:37;7.33;;;4.97;;
30247;SDS011;17063;50.892;4.702;2023-09-30T03:53:05;10.23;;;4.93;;
30247;SDS011;17063;50.892;4.702;2023-09-30T03:55:36;11.30;;;5.13;;
30247;SDS011;17063;50.892;4.702;2023-09-30T03:58:03;9.13;;;5.53;;
30247;SDS011;17063;50.892;4.702;2023-09-30T04:00:30;10.77;;;5.10;;
30247;SDS011;17063;50.892;4.702;2023-09-30T04:02:58;11.10;;;5.43;;
30247;SDS011;17063;50.892;4.702;2023-09-30T04:05:25;14.33;;;5.90;;
30247;SDS011;17063;50.892;4.702;2023-09-30T04:07:56;8.27;;;5.60;;
30247;SDS011;17063;50.892;4.702;2023-09-30T04:10:23;10.00;;;5.37;;
30247;SDS011;17063;50.892;4.702;2023-09-30T04:12:50;8.27;;;5.17;;
30247;SDS011;17063;50.892;4.702;2023-09-30T04:15:18;11.73;;;5.57;;
30247;SDS011;17063;50.892;4.702;2023-09-30T04:17:45;8.87;;;5.43;;
30247;SDS011;17063;50.892;4.702;2023-09-30T04:20:12;7.77;;;5.10;;
30247;SDS011;17063;50.892;4.702;2023-09-30T04:22:50;9.00;;;5.70;;
30247;SDS011;17063;50.892;4.702;2023-09-30T04:25:17;12.40;;;5.70;;
30247;SDS011;17063;50.892;4.702;2023-09-30T04:27:46;10.50;;;5.43;;
30247;SDS011;17063;50.892;4.702;2023-09-30T04:30:16;13.50;;;5.87;;
30247;SDS011;17063;50.892;4.702;2023-09-30T04:32:44;7.30;;;5.20;;
30247;SDS011;17063;50.892;4.702;2023-09-30T04:35:11;12.40;;;5.60;;
30247;SDS011;17063;50.892;4.702;2023-09-30T04:37:38;7.80;;;5.60;;
30247;SDS011;17063;50.892;4.702;2023-09-30T04:40:06;14.83;;;5.93;;
30247;SDS011;17063;50.892;4.702;2023-09-30T04:42:34;12.70;;;6.70;;
30247;SDS011;17063;50.892;4.702;2023-09-30T04:45:04;16.53;;;6.97;;
30247;SDS011;17063;50.892;4.702;2023-09-30T04:47:33;13.60;;;6.90;;
30247;SDS011;17063;50.892;4.702;2023-09-30T04:50:00;9.27;;;6.07;;
30247;SDS011;17063;50.892;4.702;2023-09-30T04:52:48;12.97;;;6.93;;
30247;SDS011;17063;50.892;4.702;2023-09-30T04:55:15;9.53;;;6.60;;
30247;SDS011;17063;50.892;4.702;2023-09-30T04:57:44;9.47;;;6.33;;
30247;SDS011;17063;50.892;4.702;2023-09-30T05:00:13;16.27;;;7.47;;
30247;SDS011;17063;50.892;4.702;2023-09-30T05:02:51;11.70;;;7.13;;
30247;SDS011;17063;50.892;4.702;2023-09-30T05:05:19;14.73;;;6.77;;
30247;SDS011;17063;50.892;4.702;2023-09-30T05:07:46;12.73;;;7.60;;
30247;SDS011;17063;50.892;4.702;2023-09-30T05:10:14;15.07;;;7.90;;
30247;SDS011;17063;50.892;4.702;2023-09-30T05:12:43;10.63;;;7.30;;
30247;SDS011;17063;50.892;4.702;2023-09-30T05:15:17;13.63;;;7.83;;
30247;SDS011;17063;50.892;4.702;2023-09-30T05:17:46;14.93;;;8.40;;
30247;SDS011;17063;50.892;4.702;2023-09-30T05:20:14;12.77;;;7.50;;
30247;SDS011;17063;50.892;4.702;2023-09-30T05:22:44;13.53;;;6.80;;
30247;SDS011;17063;50.892;4.702;2023-09-30T05:25:13;13.17;;;6.97;;
30247;SDS011;17063;50.892;4.702;2023-09-30T05:27:44;13.77;;;7.13;;
30247;SDS011;17063;50.892;4.702;2023-09-30T05:30:11;10.50;;;6.93;;
30247;SDS011;17063;50.892;4.702;2023-09-30T05:32:38;14.03;;;7.30;;
30247;SDS011;17063;50.892;4.702;2023-09-30T05:35:06;13.63;;;7.03;;
30247;SDS011;17063;50.892;4.702;2023-09-30T05:37:43;10.57;;;6.57;;
30247;SDS011;17063;50.892;4.702;2023-09-30T05:40:11;13.83;;;6.73;;
30247;SDS011;17063;50.892;4.702;2023-09-30T05:42:59;10.80;;;6.93;;
30247;SDS011;17063;50.892;4.702;2023-09-30T05:45:30;14.17;;;7.43;;
30247;SDS011;17063;50.892;4.702;2023-09-30T05:48:04;11.60;;;6.97;;
30247;SDS011;17063;50.892;4.702;2023-09-30T05:50:34;12.57;;;6.80;;
30247;SDS011;17063;50.892;4.702;2023-09-30T05:53:03;16.33;;;6.37;;
30247;SDS011;17063;50.892;4.702;2023-09-30T05:55:31;11.27;;;6.90;;
30247;SDS011;17063;50.892;4.702;2023-09-30T05:57:58;16.13;;;7.07;;
30247;SDS011;17063;50.892;4.702;2023-09-30T06:00:27;10.20;;;6.43;;
30247;SDS011;17063;50.892;4.702;2023-09-30T06:02:57;13.10;;;6.73;;
30247;SDS011;17063;50.892;4.702;2023-09-30T06:05:24;17.17;;;7.03;;
30247;SDS011;17063;50.892;4.702;2023-09-30T06:07:57;9.97;;;6.13;;
30247;SDS011;17063;50.892;4.702;2023-09-30T06:10:26;13.87;;;6.30;;
30247;SDS011;17063;50.892;4.702;2023-09-30T06:12:53;7.77;;;5.20;;
30247;SDS011;17063;50.892;4.702;2023-09-30T06:15:23;13.03;;;6.00;;
30247;SDS011;17063;50.892;4.702;2023-09-30T06:17:54;11.23;;;5.97;;
30247;SDS011;17063;50.892;4.702;2023-09-30T06:20:21;10.67;;;5.73;;
30247;SDS011;17063;50.892;4.702;2023-09-30T06:22:55;12.23;;;6.00;;
30247;SDS011;17063;50.892;4.702;2023-09-30T06:25:22;17.10;;;6.60;;
30247;SDS011;17063;50.892;4.702;2023-09-30T06:27:54;13.37;;;6.77;;
30247;SDS011;17063;50.892;4.702;2023-09-30T06:30:21;11.57;;;6.57;;
30247;SDS011;17063;50.892;4.702;2023-09-30T06:32:56;10.40;;;6.13;;
30247;SDS011;17063;50.892;4.702;2023-09-30T06:35:28;13.47;;;6.70;;
30247;SDS011;17063;50.892;4.702;2023-09-30T06:37:57;13.00;;;5.63;;
30247;SDS011;17063;50.892;4.702;2023-09-30T06:40:24;12.03;;;6.53;;
30247;SDS011;17063;50.892;4.702;2023-09-30T06:42:50;13.80;;;6.23;;
30247;SDS011;17063;50.892;4.702;2023-09-30T06:45:19;13.10;;;6.20;;
30247;SDS011;17063;50.892;4.702;2023-09-30T06:47:46;14.23;;;5.93;;
30247;SDS011;17063;50.892;4.702;2023-09-30T06:50:14;18.13;;;6.53;;
30247;SDS011;17063;50.892;4.702;2023-09-30T06:52:44;13.23;;;6.33;;
30247;SDS011;17063;50.892;4.702;2023-09-30T06:55:17;12.73;;;6.70;;
30247;SDS011;17063;50.892;4.702;2023-09-30T06:57:56;11.43;;;5.93;;
30247;SDS011;17063;50.892;4.702;2023-09-30T07:00:23;9.67;;;5.90;;
30247;SDS011;17063;50.892;4.702;2023-09-30T07:02:52;12.93;;;6.10;;
30247;SDS011;17063;50.892;4.702;2023-09-30T07:05:19;17.03;;;7.30;;
30247;SDS011;17063;50.892;4.702;2023-09-30T07:07:46;13.17;;;6.57;;
30247;SDS011;17063;50.892;4.702;2023-09-30T07:10:13;13.63;;;6.03;;
30247;SDS011;17063;50.892;4.702;2023-09-30T07:12:40;12.20;;;6.37;;
30247;SDS011;17063;50.892;4.702;2023-09-30T07:15:08;13.17;;;5.90;;
30247;SDS011;17063;50.892;4.702;2023-09-30T07:17:35;11.93;;;5.87;;
30247;SDS011;17063;50.892;4.702;2023-09-30T07:20:03;11.37;;;6.00;;
30247;SDS011;17063;50.892;4.702;2023-09-30T07:22:35;17.17;;;6.50;;
30247;SDS011;17063;50.892;4.702;2023-09-30T07:25:21;14.43;;;6.10;;
30247;SDS011;17063;50.892;4.702;2023-09-30T07:27:48;13.17;;;5.90;;
30247;SDS011;17063;50.892;4.702;2023-09-30T07:30:15;14.20;;;6.40;;
30247;SDS011;17063;50.892;4.702;2023-09-30T07:32:43;14.37;;;5.53;;
30247;SDS011;17063;50.892;4.702;2023-09-30T07:35:11;13.03;;;5.57;;
30247;SDS011;17063;50.892;4.702;2023-09-30T07:37:38;13.57;;;5.43;;
30247;SDS011;17063;50.892;4.702;2023-09-30T07:40:05;11.57;;;4.80;;
30247;SDS011;17063;50.892;4.702;2023-09-30T07:42:33;13.30;;;4.83;;
30247;SDS011;17063;50.892;4.702;2023-09-30T07:45:01;11.47;;;4.60;;
30247;SDS011;17063;50.892;4.702;2023-09-30T07:47:30;11.13;;;4.47;;
30247;SDS011;17063;50.892;4.702;2023-09-30T07:50:01;11.83;;;4.97;;
30247;SDS011;17063;50.892;4.702;2023-09-30T07:52:37;14.83;;;4.60;;
30247;SDS011;17063;50.892;4.702;2023-09-30T07:55:06;12.17;;;4.90;;
30247;SDS011;17063;50.892;4.702;2023-09-30T07:57:35;10.47;;;4.70;;
30247;SDS011;17063;50.892;4.702;2023-09-30T08:00:03;16.23;;;5.07;;
30247;SDS011;17063;50.892;4.702;2023-09-30T08:02:36;12.87;;;5.10;;
30247;SDS011;17063;50.892;4.702;2023-09-30T08:05:03;11.47;;;4.40;;
30247;SDS011;17063;50.892;4.702;2023-09-30T08:07:32;14.47;;;4.73;;
30247;SDS011;17063;50.892;4.702;2023-09-30T08:10:00;16.77;;;5.40;;
30247;SDS011;17063;50.892;4.702;2023-09-30T08:12:31;13.40;;;4.80;;
30247;SDS011;17063;50.892;4.702;2023-09-30T08:14:58;13.10;;;5.40;;
30247;SDS011;17063;50.892;4.702;2023-09-30T08:17:25;11.97;;;4.60;;
30247;SDS011;17063;50.892;4.702;2023-09-30T08:19:52;17.63;;;5.50;;
30247;SDS011;17063;50.892;4.702;2023-09-30T08:22:19;14.33;;;5.07;;
30247;SDS011;17063;50.892;4.702;2023-09-30T08:24:46;15.37;;;4.97;;
30247;SDS011;17063;50.892;4.702;2023-09-30T08:27:13;16.80;;;5.23;;
30247;SDS011;17063;50.892;4.702;2023-09-30T08:29:40;15.93;;;5.17;;
30247;SDS011;17063;50.892;4.702;2023-09-30T08:32:07;21.10;;;5.03;;
30247;SDS011;17063;50.892;4.702;2023-09-30T08:34:34;16.33;;;5.73;;
30247;SDS011;17063;50.892;4.702;2023-09-30T08:37:00;17.63;;;5.63;;
30247;SDS011;17063;50.892;4.702;2023-09-30T08:39:27;16.47;;;5.50;;
30247;SDS011;17063;50.892;4.702;2023-09-30T08:41:55;14.07;;;4.97;;
30247;SDS011;17063;50.892;4.702;2023-09-30T08:44:23;17.63;;;6.27;;
30247;SDS011;17063;50.892;4.702;2023-09-30T08:46:50;20.83;;;5.20;;
30247;SDS011;17063;50.892;4.702;2023-09-30T08:49:18;19.00;;;5.87;;
30247;SDS011;17063;50.892;4.702;2023-09-30T08:51:45;13.23;;;4.80;;
30247;SDS011;17063;50.892;4.702;2023-09-30T08:54:16;14.33;;;5.63;;
30247;SDS011;17063;50.892;4.702;2023-09-30T08:56:44;18.47;;;5.27;;
30247;SDS011;17063;50.892;4.702;2023-09-30T08:59:14;17.60;;;5.33;;
30247;SDS011;17063;50.892;4.702;2023-09-30T09:01:41;17.03;;;5.40;;
30247;SDS011;17063;50.892;4.702;2023-09-30T09:04:09;19.77;;;5.83;;
30247;SDS011;17063;50.892;4.702;2023-09-30T09:06:36;15.97;;;4.83;;
30247;SDS011;17063;50.892;4.702;2023-09-30T09:09:18;17.83;;;5.17;;
30247;SDS011;17063;50.892;4.702;2023-09-30T09:11:48;17.20;;;4.67;;
30247;SDS011;17063;50.892;4.702;2023-09-30T09:14:15;15.57;;;4.40;;
30247;SDS011;17063;50.892;4.702;2023-09-30T09:16:51;18.27;;;5.87;;
30247;SDS011;17063;50.892;4.702;2023-09-30T09:19:19;11.80;;;4.23;;
30247;SDS011;17063;50.892;4.702;2023-09-30T09:21:57;16.13;;;4.60;;
30247;SDS011;17063;50.892;4.702;2023-09-30T09:24:28;18.90;;;4.80;;
30247;SDS011;17063;50.892;4.702;2023-09-30T09:27:09;18.63;;;5.17;;
30247;SDS011;17063;50.892;4.702;2023-09-30T09:29:38;16.30;;;4.97;;
30247;SDS011;17063;50.892;4.702;2023-09-30T09:32:10;13.80;;;4.83;;
30247;SDS011;17063;50.892;4.702;2023-09-30T09:34:38;15.77;;;4.50;;
30247;SDS011;17063;50.892;4.702;2023-09-30T09:37:14;15.60;;;4.50;;
30247;SDS011;17063;50.892;4.702;2023-09-30T09:39:52;14.77;;;4.70;;
30247;SDS011;17063;50.892;4.702;2023-09-30T09:42:26;17.03;;;4.53;;
30247;SDS011;17063;50.892;4.702;2023-09-30T09:44:55;14.50;;;4.13;;
30247;SDS011;17063;50.892;4.702;2023-09-30T09:47:24;13.80;;;4.00;;
30247;SDS011;17063;50.892;4.702;2023-09-30T09:49:51;9.90;;;3.80;;
30247;SDS011;17063;50.892;4.702;2023-09-30T09:52:19;11.57;;;4.03;;
30247;SDS011;17063;50.892;4.702;2023-09-30T09:54:47;13.93;;;3.73;;
30247;SDS011;17063;50.892;4.702;2023-09-30T09:57:15;12.67;;;3.53;;
30247;SDS011;17063;50.892;4.702;2023-09-30T09:59:44;12.20;;;3.97;;
30247;SDS011;17063;50.892;4.702;2023-09-30T10:02:14;15.93;;;3.97;;
30247;SDS011;17063;50.892;4.702;2023-09-30T10:04:42;9.60;;;3.33;;
30247;SDS011;17063;50.892;4.702;2023-09-30T10:07:12;9.80;;;3.33;;
30247;SDS011;17063;50.892;4.702;2023-09-30T10:09:44;10.63;;;3.47;;
30247;SDS011;17063;50.892;4.702;2023-09-30T10:12:14;13.57;;;4.20;;
30247;SDS011;17063;50.892;4.702;2023-09-30T10:18:08;16.47;;;3.57;;
30247;SDS011;17063;50.892;4.702;2023-09-30T10:21:13;23.87;;;3.67;;
30247;SDS011;17063;50.892;4.702;2023-09-30T10:23:44;10.23;;;3.67;;
30247;SDS011;17063;50.892;4.702;2023-09-30T10:30:31;13.57;;;3.70;;
30247;SDS011;17063;50.892;4.702;2023-09-30T10:37:39;8.40;;;3.03;;
30247;SDS011;17063;50.892;4.702;2023-09-30T10:58:38;6.90;;;2.70;;
30247;SDS011;17063;50.892;4.702;2023-09-30T11:15:09;7.57;;;2.50;;
30247;SDS011;17063;50.892;4.702;2023-09-30T11:17:37;8.73;;;2.77;;
30247;SDS011;17063;50.892;4.702;2023-09-30T11:20:06;7.63;;;2.43;;
30247;SDS011;17063;50.892;4.702;2023-09-30T11:23:13;12.33;;;2.57;;
30247;SDS011;17063;50.892;4.702;2023-09-30T11:26:31;10.40;;;2.87;;
30247;SDS011;17063;50.892;4.702;2023-09-30T11:29:14;10.30;;;2.70;;
30247;SDS011;17063;50.892;4.702;2023-09-30T11:31:47;6.63;;;2.67;;
30247;SDS011;17063;50.892;4.702;2023-09-30T11:34:15;6.23;;;2.60;;
30247;SDS011;17063;50.892;4.702;2023-09-30T11:39:22;5.63;;;2.50;;
30247;SDS011;17063;50.892;4.702;2023-09-30T11:41:54;7.53;;;2.60;;
30247;SDS011;17063;50.892;4.702;2023-09-30T11:44:25;7.30;;;3.00;;
30247;SDS011;17063;50.892;4.702;2023-09-30T11:47:00;9.97;;;2.93;;
30247;SDS011;17063;50.892;4.702;2023-09-30T11:49:32;6.03;;;2.57;;
30247;SDS011;17063;50.892;4.702;2023-09-30T11:52:04;8.77;;;2.67;;
30247;SDS011;17063;50.892;4.702;2023-09-30T11:54:37;12.90;;;2.50;;
30247;SDS011;17063;50.892;4.702;2023-09-30T11:57:08;8.20;;;2.40;;
30247;SDS011;17063;50.892;4.702;2023-09-30T11:59:39;10.00;;;2.47;;
30247;SDS011;17063;50.892;4.702;2023-09-30T12:02:16;4.93;;;2.37;;
30247;SDS011;17063;50.892;4.702;2023-09-30T12:04:44;11.07;;;2.60;;
30247;SDS011;17063;50.892;4.702;2023-09-30T12:07:12;8.80;;;2.90;;
30247;SDS011;17063;50.892;4.702;2023-09-30T12:09:45;9.07;;;3.10;;
30247;SDS011;17063;50.892;4.702;2023-09-30T12:12:12;9.03;;;2.50;;
30247;SDS011;17063;50.892;4.702;2023-09-30T12:14:41;5.90;;;2.40;;
30247;SDS011;17063;50.892;4.702;2023-09-30T12:17:08;5.53;;;2.10;;
30247;SDS011;17063;50.892;4.702;2023-09-30T12:19:39;4.50;;;2.30;;
30247;SDS011;17063;50.892;4.702;2023-09-30T12:22:08;7.60;;;2.90;;
30247;SDS011;17063;50.892;4.702;2023-09-30T12:24:37;5.50;;;2.50;;
30247;SDS011;17063;50.892;4.702;2023-09-30T12:27:04;9.30;;;2.33;;
30247;SDS011;17063;50.892;4.702;2023-09-30T12:29:31;7.00;;;2.50;;
30247;SDS011;17063;50.892;4.702;2023-09-30T12:31:58;5.07;;;2.20;;
30247;SDS011;17063;50.892;4.702;2023-09-30T12:34:25;6.40;;;2.40;;
30247;SDS011;17063;50.892;4.702;2023-09-30T12:36:54;6.17;;;2.27;;
30247;SDS011;17063;50.892;4.702;2023-09-30T12:39:24;6.13;;;2.30;;
30247;SDS011;17063;50.892;4.702;2023-09-30T12:41:53;9.67;;;2.83;;
30247;SDS011;17063;50.892;4.702;2023-09-30T12:44:20;6.23;;;2.57;;
30247;SDS011;17063;50.892;4.702;2023-09-30T12:46:47;7.47;;;2.60;;
30247;SDS011;17063;50.892;4.702;2023-09-30T12:49:14;6.93;;;2.50;;
30247;SDS011;17063;50.892;4.702;2023-09-30T12:51:41;8.43;;;2.23;;
30247;SDS011;17063;50.892;4.702;2023-09-30T12:54:09;7.13;;;2.43;;
30247;SDS011;17063;50.892;4.702;2023-09-30T12:56:37;5.23;;;2.60;;
30247;SDS011;17063;50.892;4.702;2023-09-30T12:59:04;8.50;;;2.20;;
30247;SDS011;17063;50.892;4.702;2023-09-30T13:01:31;6.87;;;2.20;;
30247;SDS011;17063;50.892;4.702;2023-09-30T13:04:02;5.60;;;2.00;;
30247;SDS011;17063;50.892;4.702;2023-09-30T13:06:29;7.70;;;2.20;;
30247;SDS011;17063;50.892;4.702;2023-09-30T13:08:59;7.40;;;2.17;;
30247;SDS011;17063;50.892;4.702;2023-09-30T13:11:27;7.17;;;1.87;;
30247;SDS011;17063;50.892;4.702;2023-09-30T13:13:54;8.97;;;2.50;;
30247;SDS011;17063;50.892;4.702;2023-09-30T13:16:21;9.37;;;2.60;;
30247;SDS011;17063;50.892;4.702;2023-09-30T13:18:49;10.60;;;2.77;;
30247;SDS011;17063;50.892;4.702;2023-09-30T13:21:19;9.50;;;2.33;;
30247;SDS011;17063;50.892;4.702;2023-09-30T13:23:45;6.03;;;1.83;;
30247;SDS011;17063;50.892;4.702;2023-09-30T13:26:12;9.03;;;2.53;;
30247;SDS011;17063;50.892;4.702;2023-09-30T13:28:39;5.03;;;1.80;;
30247;SDS011;17063;50.892;4.702;2023-09-30T13:31:06;7.53;;;2.10;;
30247;SDS011;17063;50.892;4.702;2023-09-30T13:33:33;6.97;;;2.40;;
30247;SDS011;17063;50.892;4.702;2023-09-30T13:36:01;5.63;;;2.20;;
30247;SDS011;17063;50.892;4.702;2023-09-30T13:38:29;6.73;;;2.40;;
30247;SDS011;17063;50.892;4.702;2023-09-30T13:40:56;7.83;;;2.33;;
30247;SDS011;17063;50.892;4.702;2023-09-30T13:43:23;7.80;;;2.40;;
30247;SDS011;17063;50.892;4.702;2023-09-30T13:45:50;7.70;;;2.20;;
30247;SDS011;17063;50.892;4.702;2023-09-30T13:48:17;5.97;;;1.90;;
30247;SDS011;17063;50.892;4.702;2023-09-30T13:50:44;5.40;;;1.93;;
30247;SDS011;17063;50.892;4.702;2023-09-30T13:53:11;6.50;;;2.07;;
30247;SDS011;17063;50.892;4.702;2023-09-30T13:55:38;3.57;;;1.67;;
30247;SDS011;17063;50.892;4.702;2023-09-30T13:58:06;3.20;;;1.90;;
30247;SDS011;17063;50.892;4.702;2023-09-30T14:00:32;7.00;;;2.20;;
30247;SDS011;17063;50.892;4.702;2023-09-30T14:02:59;8.03;;;2.57;;
30247;SDS011;17063;50.892;4.702;2023-09-30T14:05:27;5.40;;;2.07;;
30247;SDS011;17063;50.892;4.702;2023-09-30T14:07:54;8.57;;;2.33;;
30247;SDS011;17063;50.892;4.702;2023-09-30T14:10:21;5.27;;;2.03;;
30247;SDS011;17063;50.892;4.702;2023-09-30T14:12:53;7.80;;;2.90;;
30247;SDS011;17063;50.892;4.702;2023-09-30T14:15:21;7.83;;;2.40;;
30247;SDS011;17063;50.892;4.702;2023-09-30T14:17:49;7.23;;;2.30;;
30247;SDS011;17063;50.892;4.702;2023-09-30T14:20:16;3.73;;;1.97;;
30247;SDS011;17063;50.892;4.702;2023-09-30T14:22:43;5.03;;;2.23;;
30247;SDS011;17063;50.892;4.702;2023-09-30T14:25:10;5.40;;;2.10;;
30247;SDS011;17063;50.892;4.702;2023-09-30T14:27:37;6.53;;;2.37;;
30247;SDS011;17063;50.892;4.702;2023-09-30T14:30:04;6.20;;;2.13;;
30247;SDS011;17063;50.892;4.702;2023-09-30T14:32:34;8.53;;;2.23;;
30247;SDS011;17063;50.892;4.702;2023-09-30T14:35:01;6.30;;;2.27;;
30247;SDS011;17063;50.892;4.702;2023-09-30T14:37:28;6.17;;;2.20;;
30247;SDS011;17063;50.892;4.702;2023-09-30T14:39:56;5.10;;;2.10;;
30247;SDS011;17063;50.892;4.702;2023-09-30T14:42:23;6.27;;;2.30;;
30247;SDS011;17063;50.892;4.702;2023-09-30T14:44:50;9.97;;;2.47;;
30247;SDS011;17063;50.892;4.702;2023-09-30T14:47:16;5.73;;;2.23;;
30247;SDS011;17063;50.892;4.702;2023-09-30T14:49:43;4.47;;;2.00;;
30247;SDS011;17063;50.892;4.702;2023-09-30T14:52:10;5.93;;;2.10;;
30247;SDS011;17063;50.892;4.702;2023-09-30T14:54:37;3.77;;;2.07;;
30247;SDS011;17063;50.892;4.702;2023-09-30T14:57:04;3.47;;;1.73;;
30247;SDS011;17063;50.892;4.702;2023-09-30T14:59:34;5.27;;;2.23;;
30247;SDS011;17063;50.892;4.702;2023-09-30T15:02:01;6.17;;;1.97;;
30247;SDS011;17063;50.892;4.702;2023-09-30T15:04:28;4.17;;;1.93;;
30247;SDS011;17063;50.892;4.702;2023-09-30T15:06:55;5.67;;;2.10;;
30247;SDS011;17063;50.892;4.702;2023-09-30T15:09:22;6.37;;;2.30;;
30247;SDS011;17063;50.892;4.702;2023-09-30T15:11:49;6.50;;;2.30;;
30247;SDS011;17063;50.892;4.702;2023-09-30T15:14:16;6.40;;;2.10;;
30247;SDS011;17063;50.892;4.702;2023-09-30T15:16:43;6.30;;;2.40;;
30247;SDS011;17063;50.892;4.702;2023-09-30T15:19:10;6.20;;;2.13;;
30247;SDS011;17063;50.892;4.702;2023-09-30T15:21:37;4.57;;;2.00;;
30247;SDS011;17063;50.892;4.702;2023-09-30T15:24:04;4.50;;;1.87;;
30247;SDS011;17063;50.892;4.702;2023-09-30T15:26:31;7.03;;;2.20;;
30247;SDS011;17063;50.892;4.702;2023-09-30T15:28:58;5.27;;;2.03;;
30247;SDS011;17063;50.892;4.702;2023-09-30T15:31:29;6.43;;;2.10;;
30247;SDS011;17063;50.892;4.702;2023-09-30T15:33:57;4.77;;;1.93;;
30247;SDS011;17063;50.892;4.702;2023-09-30T15:36:25;9.33;;;2.60;;
30247;SDS011;17063;50.892;4.702;2023-09-30T15:38:52;5.30;;;2.03;;
30247;SDS011;17063;50.892;4.702;2023-09-30T15:41:22;4.97;;;2.13;;
30247;SDS011;17063;50.892;4.702;2023-09-30T15:43:50;3.97;;;1.77;;